createdAt,value
2022-08-11T00:00:14.246Z,66.38
2022-08-11T00:04:12.950Z,67.01
2022-08-11T00:08:11.945Z,66.83
2022-08-11T00:12:18.254Z,67.52
2022-08-11T00:16:22.960Z,67.99
2022-08-11T00:20:20.678Z,68.47
2022-08-11T00:24:19.024Z,68.56
2022-08-11T00:28:32.011Z,68.44
2022-08-11T00:32:31.080Z,68.78
2022-08-11T00:36:46.689Z,68.85
2022-08-11T00:40:56.935Z,68.77
2022-08-11T00:45:17.998Z,68.70
2022-08-11T00:49:38.607Z,69.37
2022-08-11T00:53:59.889Z,68.35
2022-08-11T00:58:22.622Z,68.68
2022-08-11T01:02:47.609Z,69.32
2022-08-11T01:07:00.436Z,69.73
2022-08-11T01:11:27.477Z,69.99
2022-08-11T01:15:57.038Z,70.32
2022-08-11T01:20:47.556Z,70.81
2022-08-11T01:25:23.335Z,71.29
2022-08-11T01:29:57.407Z,70.90
2022-08-11T01:34:45.470Z,70.70
2022-08-11T01:39:26.554Z,70.55
2022-08-11T01:44:27.982Z,71.36
2022-08-11T01:48:42.855Z,71.46
2022-08-11T01:53:02.454Z,71.36
2022-08-11T01:57:34.200Z,72.00
2022-08-11T02:01:58.445Z,72.00
2022-08-11T02:06:55.366Z,72.18
2022-08-11T02:11:34.471Z,73.34
2022-08-11T02:15:47.533Z,73.39
2022-08-11T02:20:52.187Z,72.99
2022-08-11T02:25:13.264Z,73.76
2022-08-11T02:29:32.758Z,73.06
2022-08-11T02:33:36.901Z,73.36
2022-08-11T02:37:33.857Z,73.50
2022-08-11T02:42:32.892Z,73.88
2022-08-11T02:47:02.990Z,73.48
2022-08-11T02:51:22.082Z,73.60
2022-08-11T02:56:37.566Z,74.68
2022-08-11T03:00:53.890Z,74.74
2022-08-11T03:05:23.432Z,74.70
2022-08-11T03:09:38.565Z,74.27
2022-08-11T03:14:23.315Z,74.55
2022-08-11T03:19:25.902Z,75.17
2022-08-11T03:24:01.696Z,75.97
2022-08-11T03:28:22.105Z,75.80
2022-08-11T03:32:29.239Z,76.10
2022-08-11T03:37:17.895Z,76.35
2022-08-11T03:42:02.265Z,77.03
2022-08-11T03:46:17.163Z,77.20
2022-08-11T03:50:48.927Z,77.31
2022-08-11T03:55:23.896Z,77.33
2022-08-11T04:00:03.935Z,77.30
2022-08-11T04:04:51.320Z,77.41
2022-08-11T04:09:11.076Z,77.31
2022-08-11T04:14:16.823Z,77.32
2022-08-11T04:18:50.684Z,77.16
2022-08-11T04:24:35.793Z,77.33
2022-08-11T04:28:55.604Z,77.19
2022-08-11T04:33:22.818Z,77.17
2022-08-11T04:37:42.456Z,76.51
2022-08-11T04:42:55.776Z,76.73
2022-08-11T04:48:03.542Z,76.97
2022-08-11T04:53:15.408Z,77.08
2022-08-11T04:58:22.234Z,76.73
2022-08-11T05:02:48.937Z,76.07
2022-08-11T05:07:25.961Z,75.79
2022-08-11T05:12:02.538Z,75.10
2022-08-11T05:16:29.011Z,73.96
2022-08-11T05:20:46.465Z,74.06
2022-08-11T05:25:11.002Z,73.58
2022-08-11T05:30:00.401Z,74.00
2022-08-11T05:34:21.562Z,73.38
2022-08-11T05:38:45.467Z,72.67
2022-08-11T05:43:25.875Z,71.92
2022-08-11T05:47:44.946Z,70.16
2022-08-11T05:52:05.380Z,69.19
2022-08-11T05:56:20.937Z,68.54
2022-08-11T06:00:20.191Z,68.37
2022-08-11T06:04:29.189Z,69.04
2022-08-11T06:08:36.249Z,66.51
2022-08-11T06:12:37.613Z,66.79
2022-08-11T06:16:35.788Z,65.58
2022-08-11T06:20:37.647Z,63.49
2022-08-11T06:24:39.134Z,62.57
2022-08-11T06:28:41.612Z,61.22
2022-08-11T06:32:41.874Z,60.51
2022-08-11T06:37:07.320Z,59.23
2022-08-11T06:41:31.943Z,58.40
2022-08-11T06:46:06.142Z,57.51
2022-08-11T06:50:25.261Z,57.67
2022-08-11T06:54:23.883Z,56.67
2022-08-11T06:58:41.869Z,56.38
2022-08-11T07:02:55.137Z,56.06
2022-08-11T07:07:37.594Z,55.70
2022-08-11T07:12:34.936Z,55.24
2022-08-11T07:16:36.478Z,54.00
2022-08-11T07:20:56.463Z,53.92
2022-08-11T07:25:33.815Z,51.51
2022-08-11T07:29:33.087Z,50.48
2022-08-11T07:34:07.127Z,49.93
2022-08-11T07:38:15.589Z,48.74
2022-08-11T07:42:22.246Z,47.66
2022-08-11T07:46:40.093Z,47.12
2022-08-11T07:51:01.604Z,47.07
2022-08-11T07:55:05.066Z,45.70
2022-08-11T07:59:22.892Z,44.67
2022-08-11T08:04:02.122Z,43.97
2022-08-11T08:08:18.315Z,42.11
2022-08-11T08:12:35.302Z,39.05
2022-08-11T08:16:51.732Z,37.93
2022-08-11T08:20:51.031Z,37.53
2022-08-11T08:24:49.188Z,35.88
2022-08-11T08:28:46.722Z,34.12
2022-08-11T08:32:45.025Z,32.38
2022-08-11T08:36:52.394Z,34.23
2022-08-11T08:40:56.221Z,33.00
2022-08-11T08:45:16.458Z,30.92
2022-08-11T08:49:29.728Z,30.88
2022-08-11T08:53:32.944Z,31.56
2022-08-11T08:57:39.419Z,32.62
2022-08-11T09:01:54.379Z,33.16
2022-08-11T09:05:56.128Z,33.53
2022-08-11T09:09:58.190Z,32.75
2022-08-11T09:14:05.737Z,30.92
2022-08-11T09:18:09.410Z,29.05
2022-08-11T09:22:27.159Z,29.08
2022-08-11T09:26:43.398Z,29.12
2022-08-11T09:30:55.225Z,29.11
2022-08-11T09:34:54.076Z,29.18
2022-08-11T09:39:12.498Z,28.74
2022-08-11T09:43:32.034Z,28.77
2022-08-11T09:47:30.640Z,27.46
2022-08-11T09:51:34.207Z,26.82
2022-08-11T09:55:33.393Z,26.33
2022-08-11T09:59:32.209Z,26.64
2022-08-11T10:03:33.012Z,26.13
2022-08-11T10:07:30.224Z,26.28
2022-08-11T10:11:29.206Z,25.16
2022-08-11T10:15:38.466Z,23.47
2022-08-11T10:19:38.032Z,23.00
2022-08-11T10:24:00.178Z,24.29
2022-08-11T10:28:30.558Z,23.92
2022-08-11T10:32:58.395Z,24.78
2022-08-11T10:37:03.237Z,24.09
2022-08-11T10:41:20.650Z,23.44
2022-08-11T10:45:38.323Z,23.11
2022-08-11T10:49:35.946Z,22.90
2022-08-11T10:53:53.896Z,21.74
2022-08-11T10:58:09.403Z,21.38
2022-08-11T11:02:06.712Z,20.25
2022-08-11T11:06:28.964Z,19.67
2022-08-11T11:10:26.910Z,19.49
2022-08-11T11:14:55.000Z,19.74
2022-08-11T11:19:02.876Z,18.39
2022-08-11T11:23:10.296Z,18.28
2022-08-11T11:27:32.013Z,18.99
2022-08-11T11:31:59.208Z,20.52
2022-08-11T11:36:23.908Z,21.03
2022-08-11T11:40:31.443Z,21.15
2022-08-11T11:44:31.031Z,21.94
2022-08-11T11:48:29.112Z,20.62
2022-08-11T11:52:27.356Z,20.90
2022-08-11T11:56:26.110Z,19.35
2022-08-11T12:00:44.498Z,20.52
2022-08-11T12:04:44.396Z,20.02
2022-08-11T12:08:43.688Z,20.23
2022-08-11T12:13:00.592Z,18.99
2022-08-11T12:16:59.386Z,19.84
2022-08-11T12:20:56.632Z,18.67
2022-08-11T12:25:15.475Z,19.11
2022-08-11T12:29:22.615Z,20.52
2022-08-11T12:33:24.082Z,20.41
2022-08-11T12:37:30.320Z,18.86
2022-08-11T12:41:46.698Z,18.92
2022-08-11T12:45:46.132Z,18.13
2022-08-11T12:50:23.194Z,17.14
2022-08-11T12:54:41.547Z,19.01
2022-08-11T12:58:42.972Z,19.72
2022-08-11T13:03:00.395Z,19.00
2022-08-11T13:06:57.495Z,18.20
2022-08-11T13:11:16.980Z,18.77
2022-08-11T13:15:24.783Z,18.83
2022-08-11T13:19:24.112Z,18.02
2022-08-11T13:23:24.778Z,18.97
2022-08-11T13:27:24.780Z,19.64
2022-08-11T13:31:22.161Z,19.04
2022-08-11T13:35:22.217Z,19.02
2022-08-11T13:39:24.133Z,19.38
2022-08-11T13:43:23.613Z,19.87
2022-08-11T13:47:23.721Z,19.86
2022-08-11T13:51:34.738Z,19.47
2022-08-11T13:55:45.076Z,20.22
2022-08-11T13:59:56.214Z,19.98
2022-08-11T14:04:30.551Z,20.42
2022-08-11T14:08:37.470Z,19.46
2022-08-11T14:12:58.477Z,18.84
2022-08-11T14:16:57.486Z,19.98
2022-08-11T14:21:18.145Z,19.76
2022-08-11T14:25:16.953Z,20.15
2022-08-11T14:33:20.430Z,19.81
2022-08-11T14:37:25.704Z,19.09
2022-08-11T14:42:10.767Z,20.50
2022-08-11T14:46:19.641Z,20.47
2022-08-11T14:50:24.237Z,20.75
2022-08-11T14:54:50.538Z,20.07
2022-08-11T14:58:47.745Z,20.38
2022-08-11T15:03:07.116Z,19.44
2022-08-11T15:07:04.884Z,20.08
2022-08-11T15:11:36.741Z,19.47
2022-08-11T15:15:53.766Z,20.07
2022-08-11T15:20:11.241Z,19.75
2022-08-11T15:24:31.029Z,18.18
2022-08-11T15:28:53.425Z,18.10
2022-08-11T15:33:11.532Z,19.71
2022-08-11T15:37:26.995Z,20.92
2022-08-11T15:42:20.508Z,21.24
2022-08-11T15:46:33.714Z,21.00
2022-08-11T15:50:38.826Z,20.16
2022-08-11T15:54:42.294Z,20.16
2022-08-11T15:59:40.897Z,20.87
2022-08-11T16:04:06.559Z,20.22
2022-08-11T16:08:04.398Z,21.22
2022-08-11T16:12:08.130Z,21.23
2022-08-11T16:16:17.440Z,22.02
2022-08-11T16:20:20.920Z,22.27
2022-08-11T16:27:04.287Z,23.10
2022-08-11T16:28:44.285Z,22.44
2022-08-11T16:32:45.875Z,23.18
2022-08-11T16:37:01.404Z,23.09
2022-08-11T16:41:02.540Z,24.00
2022-08-11T16:45:19.477Z,24.23
2022-08-11T16:49:25.058Z,23.72
2022-08-11T16:53:22.423Z,22.93
2022-08-11T16:58:00.321Z,22.84
2022-08-11T17:02:05.036Z,22.70
2022-08-11T17:06:24.306Z,23.67
2022-08-11T17:10:56.672Z,23.68
2022-08-11T17:15:00.920Z,24.36
2022-08-11T17:19:13.818Z,24.71
2022-08-11T17:23:30.412Z,25.34
2022-08-11T17:27:31.313Z,24.96
2022-08-11T17:31:48.953Z,24.83
2022-08-11T17:35:46.138Z,24.98
2022-08-11T17:39:45.989Z,25.21
2022-08-11T17:44:03.656Z,25.52
2022-08-11T17:48:21.784Z,25.55
2022-08-11T17:52:39.246Z,25.33
2022-08-11T17:56:55.433Z,26.03
2022-08-11T18:00:56.302Z,26.44
2022-08-11T18:04:55.907Z,27.27
2022-08-11T18:09:13.741Z,27.36
2022-08-11T18:13:31.002Z,28.34
2022-08-11T18:17:46.502Z,28.64
2022-08-11T18:22:15.583Z,31.20
2022-08-11T18:26:37.773Z,32.91
2022-08-11T18:31:03.119Z,34.17
2022-08-11T18:35:23.627Z,34.71
2022-08-11T18:39:41.965Z,35.20
2022-08-11T18:44:03.936Z,35.72
2022-08-11T18:48:34.223Z,36.29
2022-08-11T18:52:54.395Z,36.70
2022-08-11T18:57:12.987Z,36.79
2022-08-11T19:01:34.379Z,37.54
2022-08-11T19:06:32.565Z,37.99
2022-08-11T19:10:34.975Z,38.04
2022-08-11T19:14:53.783Z,38.92
2022-08-11T19:19:11.337Z,39.22
2022-08-11T19:23:31.038Z,39.96
2022-08-11T19:27:48.807Z,40.77
2022-08-11T19:32:06.260Z,41.38
2022-08-11T19:36:22.244Z,42.24
2022-08-11T19:40:39.757Z,42.34
2022-08-11T19:44:56.165Z,43.16
2022-08-11T19:49:15.962Z,43.95
2022-08-11T19:53:32.391Z,44.67
2022-08-11T19:57:50.978Z,44.92
2022-08-11T20:02:14.245Z,45.24
2022-08-11T20:06:32.613Z,45.60
2022-08-11T20:10:51.933Z,46.18
2022-08-11T20:15:11.073Z,46.61
2022-08-11T20:19:55.137Z,47.00
2022-08-11T20:24:07.004Z,47.45
2022-08-11T20:28:25.427Z,47.24
2022-08-11T20:32:43.108Z,47.06
2022-08-11T20:37:01.210Z,47.47
2022-08-11T20:41:19.964Z,48.08
2022-08-11T20:45:37.036Z,48.60
2022-08-11T20:50:11.080Z,48.68
2022-08-11T20:54:38.232Z,48.67
2022-08-11T20:59:18.289Z,49.08
2022-08-11T21:03:44.559Z,49.16
2022-08-11T21:08:08.481Z,49.40
2022-08-11T21:12:29.777Z,49.65
2022-08-11T21:16:56.178Z,50.09
2022-08-11T21:21:16.418Z,50.34
2022-08-11T21:25:38.062Z,50.86
2022-08-11T21:29:57.059Z,51.22
2022-08-11T21:34:14.585Z,51.28
2022-08-11T21:38:32.927Z,51.34
2022-08-11T21:42:55.421Z,51.46
2022-08-11T21:47:15.583Z,52.04
2022-08-11T21:51:32.880Z,52.54
2022-08-11T21:55:49.743Z,53.06
2022-08-11T22:00:16.569Z,52.83
2022-08-11T22:04:35.825Z,53.23
2022-08-11T22:08:53.024Z,53.50
2022-08-11T22:13:10.573Z,53.89
2022-08-11T22:17:25.969Z,54.02
2022-08-11T22:21:56.976Z,54.14
2022-08-11T22:26:20.893Z,54.34
2022-08-11T22:30:38.002Z,55.23
2022-08-11T22:34:53.983Z,55.26
2022-08-11T22:39:11.016Z,55.32
2022-08-11T22:43:26.655Z,55.78
2022-08-11T22:47:44.936Z,55.76
2022-08-11T22:52:02.944Z,56.44
2022-08-11T22:56:18.862Z,56.12
2022-08-11T23:00:48.704Z,56.70
2022-08-11T23:05:06.134Z,56.75
2022-08-11T23:09:24.620Z,57.47
2022-08-11T23:13:41.461Z,58.57
2022-08-11T23:17:57.541Z,60.00
2022-08-11T23:22:13.780Z,60.15
2022-08-11T23:26:30.927Z,60.07
2022-08-11T23:30:48.053Z,60.63
2022-08-11T23:35:40.216Z,61.37
2022-08-11T23:39:45.904Z,61.77
2022-08-11T23:44:03.585Z,60.98
2022-08-11T23:48:21.784Z,61.54
2022-08-11T23:52:38.901Z,61.65
2022-08-11T23:56:55.049Z,62.05
